Time;durP1;ratioP1;P1;durP2;ratioP2;P2;SDS_P1;SDS_P2;PMS_P1;PMS_P2;Temp;Humidity;BMP_temperature;BMP_pressure;BME280_temperature;BME280_humidity;BME280_pressure;Samples;Min_cycle;Max_cycle;Signal;HPM_P1;HPM_P2
2021/08/07 00:01:42;;;;;;;2.30;1.13;;;;;;;13.17;90.96;99412.53;263556;1093;114260;-73
2021/08/07 00:06:44;;;;;;;2.98;1.05;;;;;;;13.05;91.53;99411.42;263729;1095;114344;-74
2021/08/07 00:11:46;;;;;;;1.75;1.18;;;;;;;13.05;91.56;99419.39;263734;1095;114335;-73
2021/08/07 00:21:59;;;;;;;2.15;1.00;;;;;;;13.06;90.87;99428.98;263213;1095;113809;-73
2021/08/07 00:27:06;;;;;;;1.30;1.20;;;;;;;13.10;91.17;99435.53;263276;1095;114086;-76
2021/08/07 00:32:14;;;;;;;2.63;1.48;;;;;;;13.04;90.86;99431.02;263354;1095;114076;-75
2021/08/07 00:37:19;;;;;;;1.50;1.40;;;;;;;13.08;90.40;99449.00;263297;1095;114422;-73
2021/08/07 00:42:23;;;;;;;1.70;1.33;;;;;;;12.92;90.02;99449.29;263397;1095;114882;-74
2021/08/07 00:47:48;;;;;;;1.78;1.38;;;;;;;12.90;90.15;99460.06;263327;1090;114051;-74
2021/08/07 00:52:50;;;;;;;4.20;1.40;;;;;;;12.86;90.25;99466.77;263310;1095;114159;-72
2021/08/07 00:57:52;;;;;;;1.43;1.33;;;;;;;12.93;89.97;99465.00;263358;1096;114200;-73
2021/08/07 01:03:07;;;;;;;1.50;1.40;;;;;;;12.92;89.88;99470.50;263194;1095;114188;-74
2021/08/07 01:08:21;;;;;;;2.28;1.70;;;;;;;12.90;89.56;99468.02;263190;1096;114375;-74
2021/08/07 01:13:27;;;;;;;1.73;1.63;;;;;;;12.94;89.32;99473.77;263322;1095;113978;-74
2021/08/07 01:18:31;;;;;;;2.18;1.45;;;;;;;12.95;89.46;99478.91;263291;1096;113975;-76
2021/08/07 01:23:47;;;;;;;2.88;2.63;;;;;;;12.93;89.21;99475.61;263318;1095;112968;-74
2021/08/07 01:28:51;;;;;;;1.98;1.40;;;;;;;12.95;89.25;99476.25;263296;1096;114359;-74
2021/08/07 01:33:55;;;;;;;2.90;1.50;;;;;;;13.03;89.29;99477.95;263254;1097;114547;-74
2021/08/07 01:39:01;;;;;;;2.33;1.53;;;;;;;13.05;88.88;99475.91;263344;1095;112967;-75
2021/08/07 01:44:08;;;;;;;5.28;1.63;;;;;;;13.03;88.70;99477.95;263125;1095;114752;-75
2021/08/07 01:49:15;;;;;;;1.33;1.23;;;;;;;13.07;88.56;99478.39;263391;1097;113033;-75
2021/08/07 01:54:29;;;;;;;1.95;1.70;;;;;;;13.10;88.41;99472.67;263300;1095;113424;-76
2021/08/07 01:59:35;;;;;;;1.40;1.30;;;;;;;13.12;88.03;99482.09;263259;1096;114024;-73
2021/08/07 02:04:40;;;;;;;1.63;1.20;;;;;;;13.05;87.99;99483.05;263308;1095;113132;-75
2021/08/07 02:09:46;;;;;;;2.55;1.45;;;;;;;13.13;87.92;99483.73;263245;1095;114900;-73
2021/08/07 02:14:49;;;;;;;1.60;1.45;;;;;;;13.11;88.00;99496.38;263418;1096;114504;-73
2021/08/07 02:19:52;;;;;;;2.98;1.48;;;;;;;13.13;88.08;99490.88;263444;1095;114018;-74
2021/08/07 02:24:54;;;;;;;1.88;1.50;;;;;;;13.09;88.25;99498.39;263296;1096;114588;-73
2021/08/07 02:30:01;;;;;;;3.15;1.75;;;;;;;13.07;88.25;99494.30;263346;1095;114495;-74
2021/08/07 02:35:10;;;;;;;4.68;1.83;;;;;;;13.08;88.43;99496.75;263294;1095;116028;-74
2021/08/07 02:40:14;;;;;;;2.83;2.03;;;;;;;13.09;87.92;99505.53;263277;1095;114198;-72
2021/08/07 02:45:18;;;;;;;2.68;1.93;;;;;;;13.05;88.08;99513.05;263288;1095;113908;-75
2021/08/07 02:50:25;;;;;;;1.60;1.50;;;;;;;13.05;87.77;99517.53;263254;1097;113986;-76
2021/08/07 02:55:35;;;;;;;3.53;1.67;;;;;;;13.06;87.41;99516.52;263273;1096;114457;-73
2021/08/07 03:00:44;;;;;;;4.03;1.48;;;;;;;13.11;86.88;99516.78;263266;1096;114644;-76
2021/08/07 03:05:57;;;;;;;2.65;2.45;;;;;;;13.11;86.82;99532.70;263402;1096;113066;-75
2021/08/07 03:11:02;;;;;;;3.03;1.30;;;;;;;13.10;86.67;99552.27;263487;1096;113056;-74
2021/08/07 03:16:08;;;;;;;2.53;1.40;;;;;;;13.13;86.72;99552.70;263531;1095;114519;-73
2021/08/07 03:26:14;;;;;;;2.98;1.68;;;;;;;13.04;86.84;99561.00;263792;1095;113914;-73
2021/08/07 03:31:16;;;;;;;3.88;1.93;;;;;;;13.06;87.10;99551.00;263444;1096;114223;-75
2021/08/07 03:36:19;;;;;;;3.80;1.75;;;;;;;13.16;86.55;99562.13;263433;1095;114457;-74
2021/08/07 03:41:22;;;;;;;2.73;1.50;;;;;;;13.20;85.96;99563.39;263508;1095;114066;-73
2021/08/07 03:46:29;;;;;;;2.98;2.03;;;;;;;13.15;85.74;99555.19;263488;1095;114188;-75
2021/08/07 03:51:35;;;;;;;4.83;1.68;;;;;;;13.14;85.34;99564.14;263690;1095;114039;-74
2021/08/07 03:56:38;;;;;;;3.45;1.70;;;;;;;13.10;85.68;99573.48;263415;1094;114052;-74
2021/08/07 04:01:40;;;;;;;3.77;1.93;;;;;;;13.12;85.81;99572.30;263645;1095;114434;-74
2021/08/07 04:06:42;;;;;;;2.23;1.50;;;;;;;13.14;85.05;99582.70;263416;1096;114120;-74
2021/08/07 04:11:47;;;;;;;3.45;1.55;;;;;;;13.04;85.21;99577.73;263673;1095;114068;-74
2021/08/07 04:16:50;;;;;;;2.93;1.70;;;;;;;12.97;85.22;99590.09;263484;1096;114484;-75
2021/08/07 04:21:55;;;;;;;1.65;1.30;;;;;;;12.96;84.87;99586.63;263546;1095;114516;-73
2021/08/07 04:27:02;;;;;;;3.15;1.60;;;;;;;12.89;84.78;99584.91;263629;1095;114668;-75
2021/08/07 04:32:07;;;;;;;4.58;2.00;;;;;;;12.93;84.59;99583.53;263709;1096;114716;-75
2021/08/07 04:37:46;;;;;;;2.18;1.40;;;;;;;12.86;84.64;99583.45;263625;1095;114333;31
2021/08/07 04:42:55;;;;;;;3.55;1.40;;;;;;;12.85;84.50;99592.42;263137;1096;114007;-73
2021/08/07 04:48:07;;;;;;;1.80;1.50;;;;;;;12.90;84.63;99594.50;263560;1093;114104;-74
2021/08/07 04:53:09;;;;;;;1.60;1.45;;;;;;;12.96;84.62;99605.20;263576;1095;114055;-75
2021/08/07 04:58:14;;;;;;;2.68;1.40;;;;;;;12.98;84.40;99592.55;263651;1095;114657;-74
2021/08/07 05:03:16;;;;;;;4.87;1.50;;;;;;;13.02;84.31;99597.48;263695;1095;114578;-74
2021/08/07 05:08:19;;;;;;;2.05;1.60;;;;;;;13.10;84.11;99606.14;263541;1094;114205;-74
2021/08/07 05:13:25;;;;;;;1.78;1.53;;;;;;;13.29;83.00;99599.42;263607;1095;114660;-76
2021/08/07 05:18:58;;;;;;;3.25;1.70;;;;;;;13.46;82.25;99606.13;263505;1091;114474;-74
2021/08/07 05:24:00;;;;;;;4.43;1.30;;;;;;;13.62;81.66;99606.88;263531;1095;115983;-74
2021/08/07 05:29:02;;;;;;;1.60;1.50;;;;;;;13.73;81.92;99601.86;263502;1096;114377;-75
2021/08/07 05:34:05;;;;;;;2.60;1.25;;;;;;;13.81;80.76;99603.55;263655;1095;114760;-73
2021/08/07 05:39:07;;;;;;;1.40;1.30;;;;;;;13.89;80.95;99606.05;263679;1096;114214;-73
2021/08/07 05:44:09;;;;;;;4.23;1.40;;;;;;;14.07;80.64;99608.20;263650;1095;114200;-73
2021/08/07 05:49:11;;;;;;;2.35;2.10;;;;;;;14.22;80.57;99613.41;263644;1095;114929;-74
2021/08/07 05:54:13;;;;;;;3.18;2.10;;;;;;;14.34;80.38;99613.67;263486;1095;115348;-74
2021/08/07 05:59:16;;;;;;;3.65;1.80;;;;;;;14.46;79.56;99620.89;263707;1096;115590;-74
2021/08/07 06:04:18;;;;;;;3.45;2.63;;;;;;;14.51;79.28;99630.99;263500;1096;114858;-73
2021/08/07 06:09:27;;;;;;;3.33;2.28;;;;;;;14.60;78.62;99615.69;263664;1096;114568;-76
2021/08/07 06:14:29;;;;;;;3.73;2.03;;;;;;;14.76;78.86;99620.65;263674;1096;114172;-76
2021/08/07 06:19:31;;;;;;;1.63;1.20;;;;;;;14.85;76.95;99632.75;263519;1095;133524;-74
2021/08/07 06:24:34;;;;;;;2.43;1.43;;;;;;;14.89;77.03;99633.98;263644;1095;114446;-74
2021/08/07 06:29:36;;;;;;;1.85;1.40;;;;;;;15.03;76.07;99639.37;263347;1095;115006;-74
2021/08/07 06:34:38;;;;;;;1.88;1.33;;;;;;;15.15;75.39;99645.75;263688;1095;114051;-74
2021/08/07 06:39:41;;;;;;;2.08;1.40;;;;;;;15.26;75.26;99642.50;263577;1096;114944;-74
2021/08/07 06:44:43;;;;;;;2.35;1.30;;;;;;;15.36;75.26;99645.57;263635;1096;114504;-74
2021/08/07 06:49:45;;;;;;;3.00;1.00;;;;;;;15.53;73.61;99645.20;263712;1096;114507;-74
2021/08/07 06:54:52;;;;;;;2.10;1.55;;;;;;;15.61;72.94;99647.67;263599;1096;114684;-75
2021/08/07 06:59:55;;;;;;;2.25;1.40;;;;;;;15.73;71.60;99646.06;263591;1095;114929;-75
2021/08/07 07:04:57;;;;;;;1.43;1.28;;;;;;;15.85;68.48;99648.93;263642;1095;114570;-75
2021/08/07 07:10:01;;;;;;;2.95;1.90;;;;;;;15.96;68.99;99639.50;263339;1095;114619;-74
2021/08/07 07:15:05;;;;;;;3.75;1.78;;;;;;;15.98;69.17;99637.44;263616;1096;114524;-73
2021/08/07 07:20:07;;;;;;;2.35;1.40;;;;;;;16.05;69.53;99638.25;263540;1095;114793;-73
2021/08/07 07:25:13;;;;;;;2.10;1.20;;;;;;;16.20;67.83;99652.18;263710;1096;114502;-74
2021/08/07 07:30:18;;;;;;;2.15;1.10;;;;;;;16.29;67.01;99656.25;263505;1095;114472;-77
2021/08/07 07:35:24;;;;;;;4.08;1.18;;;;;;;16.37;68.28;99653.36;263529;1095;114004;-74
2021/08/07 07:40:26;;;;;;;1.30;1.20;;;;;;;16.55;65.61;99650.05;263737;1095;114484;-75
2021/08/07 07:45:29;;;;;;;3.80;1.13;;;;;;;16.59;66.37;99656.59;263630;1095;114435;-74
2021/08/07 07:50:31;;;;;;;1.60;1.40;;;;;;;16.70;66.17;99655.13;263596;1095;114180;-74
2021/08/07 07:55:34;;;;;;;1.50;1.13;;;;;;;16.97;65.47;99660.36;263635;1095;114223;-75
2021/08/07 08:00:37;;;;;;;2.55;1.40;;;;;;;17.12;65.37;99660.91;263624;1096;114679;-73
2021/08/07 08:05:39;;;;;;;2.53;1.40;;;;;;;17.21;63.71;99670.33;263615;1096;114398;-75
2021/08/07 08:10:41;;;;;;;4.88;1.60;;;;;;;17.38;64.34;99674.12;263536;1096;115442;-77
2021/08/07 08:15:45;;;;;;;5.30;2.03;;;;;;;17.51;63.40;99675.06;263555;1095;113899;-75
2021/08/07 08:20:50;;;;;;;2.93;1.60;;;;;;;17.63;64.02;99667.98;263675;1095;114316;-73
2021/08/07 08:25:52;;;;;;;3.05;1.50;;;;;;;17.79;63.83;99662.16;263774;1095;114394;-73
2021/08/07 08:30:57;;;;;;;1.93;1.70;;;;;;;17.90;64.49;99667.81;263729;1096;114637;-75
2021/08/07 08:36:05;;;;;;;2.53;1.70;;;;;;;18.03;64.79;99678.42;263570;1096;114404;-69
2021/08/07 08:41:07;;;;;;;2.23;2.03;;;;;;;18.21;65.01;99682.97;263722;1095;114126;-75
2021/08/07 08:46:10;;;;;;;2.40;1.63;;;;;;;18.22;64.85;99687.30;263817;1095;114084;-73
2021/08/07 08:51:16;;;;;;;2.03;1.65;;;;;;;18.33;63.08;99684.72;263758;1096;114330;-62
2021/08/07 08:56:26;;;;;;;3.03;1.98;;;;;;;18.54;63.76;99690.69;263756;1096;114228;-74
2021/08/07 09:01:29;;;;;;;2.75;1.90;;;;;;;18.67;64.59;99701.23;263698;1096;114429;-74
2021/08/07 09:06:33;;;;;;;3.15;1.60;;;;;;;18.78;63.77;99692.49;263775;1095;114428;-62
2021/08/07 09:11:48;;;;;;;3.93;1.93;;;;;;;18.86;61.49;99707.44;263787;1094;113917;-74
2021/08/07 09:17:06;;;;;;;3.65;1.73;;;;;;;18.90;60.29;99705.14;263694;1096;113975;-79
2021/08/07 09:22:09;;;;;;;1.48;1.38;;;;;;;19.06;60.71;99705.33;263776;1096;114401;-73
2021/08/07 09:27:11;;;;;;;2.83;1.58;;;;;;;19.30;61.08;99700.89;263767;1096;114295;-73
2021/08/07 09:32:19;;;;;;;4.13;2.25;;;;;;;19.65;59.48;99700.23;263908;1097;113948;-74
2021/08/07 09:37:28;;;;;;;1.78;1.50;;;;;;;19.72;58.66;99698.27;263532;1096;114509;-76
2021/08/07 09:42:31;;;;;;;4.95;2.48;;;;;;;19.73;58.70;99699.08;263994;1095;114555;-73
2021/08/07 09:47:34;;;;;;;1.93;1.75;;;;;;;19.97;57.75;99710.66;263776;1096;114114;-76
2021/08/07 09:52:37;;;;;;;2.30;1.58;;;;;;;19.88;58.96;99718.23;263744;1096;114196;-74
2021/08/07 09:57:40;;;;;;;1.85;1.75;;;;;;;20.14;60.25;99725.05;263764;1096;115969;-74
2021/08/07 10:02:45;;;;;;;2.43;2.23;;;;;;;20.11;58.68;99719.33;263732;1095;114880;-74
2021/08/07 10:08:16;;;;;;;6.43;2.00;;;;;;;20.30;60.66;99710.94;263846;1095;115124;-73
2021/08/07 10:13:21;;;;;;;2.20;1.90;;;;;;;20.58;59.39;99720.17;263644;1096;114177;-74
2021/08/07 10:18:26;;;;;;;2.58;1.98;;;;;;;20.70;60.16;99722.84;263727;1095;114809;-73
2021/08/07 10:23:29;;;;;;;7.70;3.88;;;;;;;20.46;59.09;99719.34;263855;1095;114297;-75
2021/08/07 10:28:35;;;;;;;2.15;1.98;;;;;;;20.67;59.07;99731.36;263777;1096;114066;-72
2021/08/07 10:33:41;;;;;;;2.58;2.38;;;;;;;20.88;58.07;99721.89;263776;1096;114490;-74
2021/08/07 10:38:51;;;;;;;2.40;2.25;;;;;;;20.97;58.10;99720.45;263801;1094;114544;-75
2021/08/07 10:43:59;;;;;;;2.78;2.30;;;;;;;21.11;59.16;99729.89;263682;1095;114456;-74
2021/08/07 10:49:02;;;;;;;3.05;2.38;;;;;;;21.19;57.78;99729.52;263801;1096;114462;-75
2021/08/07 10:54:27;;;;;;;3.10;2.58;;;;;;;21.61;59.33;99725.73;263775;1095;114606;-74
2021/08/07 10:59:38;;;;;;;3.48;3.18;;;;;;;21.76;59.49;99713.36;263795;1095;114520;-75
2021/08/07 11:10:15;;;;;;;3.45;3.18;;;;;;;21.69;59.79;99712.73;263717;1095;114541;-74
2021/08/07 11:15:32;;;;;;;4.33;3.93;;;;;;;21.63;59.87;99719.06;263541;1095;114226;-73
2021/08/07 11:20:37;;;;;;;3.90;3.60;;;;;;;21.85;59.98;99726.44;263510;1096;114412;-73
2021/08/07 11:25:54;;;;;;;7.60;6.90;;;;;;;21.31;62.84;99725.97;263721;1096;114378;-74
2021/08/07 11:31:14;;;;;;;3.58;3.28;;;;;;;21.62;61.31;99728.20;263837;1095;114817;-74
2021/08/07 11:36:18;;;;;;;5.93;5.40;;;;;;;22.11;60.01;99724.97;263654;1095;114319;-73
2021/08/07 11:41:35;;;;;;;3.55;3.33;;;;;;;21.85;59.16;99721.06;263772;1096;114406;-74
2021/08/07 11:46:42;;;;;;;3.90;3.60;;;;;;;22.13;56.68;99731.78;263798;1095;114432;-74
2021/08/07 11:51:52;;;;;;;3.60;3.30;;;;;;;22.58;57.52;99725.42;263805;1096;113959;-72
2021/08/07 11:56:54;;;;;;;7.03;6.33;;;;;;;22.30;57.13;99730.95;263581;1095;114335;-75
2021/08/07 12:01:56;;;;;;;5.10;4.30;;;;;;;21.85;60.52;99737.20;263755;1095;114297;-73
2021/08/07 12:07:11;;;;;;;2.93;2.73;;;;;;;21.86;57.99;99728.88;263647;1096;114312;-74
2021/08/07 12:12:15;;;;;;;3.18;2.95;;;;;;;22.07;57.96;99739.97;263440;1096;114123;-75
2021/08/07 12:17:17;;;;;;;3.13;2.85;;;;;;;22.03;58.04;99732.38;263698;1095;114146;-74
2021/08/07 12:22:22;;;;;;;3.48;2.80;;;;;;;22.28;57.76;99735.78;263597;1095;114075;-73
2021/08/07 12:27:29;;;;;;;2.45;2.25;;;;;;;22.46;57.75;99740.88;263706;1095;114260;-74
2021/08/07 12:32:31;;;;;;;2.23;2.08;;;;;;;22.49;56.01;99733.13;263827;1095;114379;-75
2021/08/07 12:37:35;;;;;;;2.08;1.98;;;;;;;22.58;57.68;99738.08;263750;1095;114262;-74
2021/08/07 12:42:44;;;;;;;2.10;2.00;;;;;;;22.77;56.63;99731.34;263726;1095;114468;-74
2021/08/07 12:47:55;;;;;;;2.35;2.25;;;;;;;23.09;57.58;99734.23;263577;1095;114566;-73
2021/08/07 12:53:00;;;;;;;2.35;2.15;;;;;;;22.85;56.84;99743.57;263449;1096;113982;-74
2021/08/07 12:58:15;;;;;;;2.23;2.13;;;;;;;22.33;57.64;99749.30;263440;1095;114444;-74
2021/08/07 13:03:18;;;;;;;2.00;1.90;;;;;;;22.01;58.33;99747.97;263540;1096;114005;-73
2021/08/07 13:08:28;;;;;;;1.98;1.60;;;;;;;22.24;57.20;99728.19;263789;1095;114226;-74
2021/08/07 13:13:42;;;;;;;1.95;1.85;;;;;;;22.73;56.40;99739.11;263710;1095;114184;-70
2021/08/07 13:18:44;;;;;;;1.88;1.78;;;;;;;22.99;55.41;99736.78;263539;1096;114897;-75
2021/08/07 13:23:47;;;;;;;2.25;2.00;;;;;;;23.16;55.46;99734.83;263799;1096;114464;-75
2021/08/07 13:28:49;;;;;;;2.18;1.70;;;;;;;23.18;53.69;99738.10;263682;1095;114553;-74
2021/08/07 13:33:51;;;;;;;1.58;1.48;;;;;;;23.24;54.06;99745.16;263767;1096;114363;-76
2021/08/07 13:38:53;;;;;;;1.48;1.38;;;;;;;23.29;51.29;99740.89;263684;1095;114536;-75
2021/08/07 13:43:56;;;;;;;1.60;1.40;;;;;;;23.37;52.90;99732.38;263689;1095;114445;-73
2021/08/07 13:48:58;;;;;;;5.55;5.05;;;;;;;23.22;54.10;99747.31;263733;1095;114906;-74
2021/08/07 13:54:00;;;;;;;3.28;2.75;;;;;;;23.11;53.63;99750.95;263826;1094;114254;-75
2021/08/07 13:59:04;;;;;;;3.00;1.60;;;;;;;23.29;54.22;99754.38;263398;1095;114859;-75
2021/08/07 14:04:07;;;;;;;1.50;1.40;;;;;;;23.03;53.14;99743.30;263663;1094;114601;-75
2021/08/07 14:09:09;;;;;;;1.33;1.15;;;;;;;23.09;53.18;99742.31;263469;1096;114184;-74
2021/08/07 14:14:16;;;;;;;1.65;1.43;;;;;;;23.05;54.42;99733.08;263815;1095;114237;-74
2021/08/07 14:19:24;;;;;;;1.33;1.23;;;;;;;23.01;54.20;99723.86;263750;1095;114303;-74
2021/08/07 14:24:32;;;;;;;2.00;1.90;;;;;;;22.97;54.68;99731.63;263619;1095;114422;-75
2021/08/07 14:29:37;;;;;;;1.53;1.43;;;;;;;23.27;54.58;99737.66;263666;1095;114434;-75
2021/08/07 14:34:42;;;;;;;2.25;1.25;;;;;;;23.50;52.32;99741.95;263694;1096;114661;-78
2021/08/07 14:39:49;;;;;;;3.25;2.93;;;;;;;23.62;52.76;99734.52;263263;1095;114766;-75
2021/08/07 14:44:51;;;;;;;3.23;2.93;;;;;;;23.38;50.59;99739.40;263750;1095;114006;-73
2021/08/07 14:49:53;;;;;;;1.63;1.53;;;;;;;23.67;50.28;99737.28;263759;1095;113991;-74
2021/08/07 14:54:56;;;;;;;1.68;1.58;;;;;;;23.38;51.51;99736.70;263739;1095;114019;-74
2021/08/07 14:59:58;;;;;;;2.35;1.88;;;;;;;22.99;52.86;99734.09;263709;1095;114221;-74
2021/08/07 15:05:04;;;;;;;1.50;1.40;;;;;;;23.26;52.58;99744.13;263867;1096;114590;-74
2021/08/07 15:10:08;;;;;;;1.20;1.10;;;;;;;23.42;52.52;99732.43;263748;1095;113965;-76
2021/08/07 15:15:11;;;;;;;2.38;1.20;;;;;;;23.37;52.62;99726.98;263728;1096;114368;-76
2021/08/07 15:20:14;;;;;;;2.95;1.08;;;;;;;23.36;51.14;99725.34;263706;1096;114166;-74
2021/08/07 15:25:16;;;;;;;1.50;1.40;;;;;;;23.36;52.52;99733.43;263746;1094;114441;-73
2021/08/07 15:30:20;;;;;;;2.13;1.75;;;;;;;23.37;53.05;99732.38;263757;1095;113984;-75
2021/08/07 15:35:22;;;;;;;1.60;1.50;;;;;;;23.40;52.49;99723.77;263751;1095;114019;-75
2021/08/07 15:40:24;;;;;;;1.30;1.20;;;;;;;23.41;51.19;99728.92;263665;1095;114558;-75
2021/08/07 15:45:27;;;;;;;2.45;1.40;;;;;;;23.42;51.16;99729.73;263548;1096;114669;-73
2021/08/07 15:50:32;;;;;;;1.50;1.40;;;;;;;23.33;51.41;99731.27;263767;1094;114460;-75
2021/08/07 15:55:38;;;;;;;1.30;1.23;;;;;;;23.32;51.45;99733.12;263804;1095;114013;-74
2021/08/07 16:00:41;;;;;;;2.43;1.73;;;;;;;23.17;52.88;99732.94;263720;1095;113979;-74
2021/08/07 16:05:46;;;;;;;2.10;1.60;;;;;;;23.24;51.59;99736.27;263779;1095;114265;-75
2021/08/07 16:10:54;;;;;;;1.90;1.80;;;;;;;23.16;51.50;99742.91;263412;1095;114979;-73
2021/08/07 16:15:57;;;;;;;1.23;1.23;;;;;;;23.17;52.31;99744.56;263753;1095;114737;-75
2021/08/07 16:21:02;;;;;;;2.30;1.85;;;;;;;23.14;51.87;99747.76;263736;1095;114466;-75
2021/08/07 16:26:08;;;;;;;1.53;1.40;;;;;;;23.05;52.67;99751.13;263777;1096;114206;-74
2021/08/07 16:31:11;;;;;;;1.45;1.20;;;;;;;23.03;52.34;99746.00;263811;1095;114434;-73
2021/08/07 16:36:13;;;;;;;3.25;1.45;;;;;;;22.87;53.75;99749.54;263849;1096;114061;-73
2021/08/07 16:41:16;;;;;;;2.83;2.58;;;;;;;22.80;54.79;99754.30;263761;1096;114448;-74
2021/08/07 16:46:21;;;;;;;2.45;1.40;;;;;;;22.85;54.89;99746.27;263935;1095;114061;-75
2021/08/07 17:43:25;;;;;;;3.95;3.58;;;;;;;22.07;59.68;99783.03;258088;1093;103115;-76
2021/08/07 17:48:31;;;;;;;3.55;3.25;;;;;;;21.92;61.10;99791.65;257536;1093;114167;-78
2021/08/07 17:53:33;;;;;;;3.65;3.33;;;;;;;21.75;62.06;99794.31;257253;1093;114072;-74
2021/08/07 17:58:35;;;;;;;5.43;3.25;;;;;;;21.62;64.45;99798.12;257624;1093;114472;-75
2021/08/07 18:03:40;;;;;;;3.65;3.03;;;;;;;21.51;63.50;99793.59;257757;1093;114533;-74
2021/08/07 18:08:43;;;;;;;3.17;2.97;;;;;;;21.55;62.83;99800.13;257257;1092;114362;-76
2021/08/07 18:13:47;;;;;;;6.18;3.38;;;;;;;21.55;64.62;99797.44;258453;1093;114667;-75
2021/08/07 18:18:50;;;;;;;3.58;3.28;;;;;;;21.50;62.43;99806.23;259213;1093;113443;-74
2021/08/07 18:23:52;;;;;;;3.40;3.10;;;;;;;21.49;62.05;99798.38;258496;1091;113697;-75
2021/08/07 18:28:59;;;;;;;4.03;3.65;;;;;;;21.39;62.83;99798.20;257954;1093;113850;-77
2021/08/07 18:34:05;;;;;;;4.03;3.73;;;;;;;21.32;63.50;99813.61;258779;1091;113993;-77
2021/08/07 18:39:07;;;;;;;3.58;3.28;;;;;;;21.20;63.98;99817.14;257676;1093;114556;-76
2021/08/07 18:44:10;;;;;;;4.98;4.10;;;;;;;21.11;65.64;99829.31;258741;1095;113856;-77
2021/08/07 18:49:13;;;;;;;4.23;3.83;;;;;;;20.99;64.91;99815.89;258275;1096;114192;-75
2021/08/07 18:54:15;;;;;;;5.85;5.30;;;;;;;20.94;65.50;99812.27;258349;1093;114016;-76
2021/08/07 18:59:19;;;;;;;5.68;5.18;;;;;;;20.90;65.86;99817.28;257915;1093;113864;-75
2021/08/07 19:04:21;;;;;;;5.55;4.65;;;;;;;20.79;66.44;99816.27;259560;1093;113749;-78
2021/08/07 19:09:28;;;;;;;5.53;5.00;;;;;;;20.75;66.91;99820.47;257969;1092;114426;-77
2021/08/07 19:14:34;;;;;;;6.03;5.40;;;;;;;20.69;66.90;99825.95;257878;1093;114119;-73
2021/08/07 19:19:38;;;;;;;5.98;5.48;;;;;;;20.53;68.06;99827.45;258052;1093;114008;-74
2021/08/07 19:24:42;;;;;;;8.03;7.43;;;;;;;20.31;68.99;99827.14;259219;1096;114502;-76
2021/08/07 19:29:46;;;;;;;11.35;8.35;;;;;;;20.19;69.49;99839.72;257858;1094;114363;-77
2021/08/07 19:34:49;;;;;;;8.90;8.13;;;;;;;20.08;70.05;99830.59;257610;1096;114355;-74
2021/08/07 19:39:54;;;;;;;8.90;8.10;;;;;;;20.07;70.18;99834.33;259285;1093;113033;-75
2021/08/07 19:45:02;;;;;;;9.33;8.18;;;;;;;20.03;70.25;99833.15;258136;1095;114083;-76
2021/08/07 19:50:05;;;;;;;7.75;7.05;;;;;;;19.93;70.58;99843.59;258088;1096;113871;-75
2021/08/07 19:55:09;;;;;;;8.65;7.85;;;;;;;19.83;71.00;99834.25;257820;1093;114119;-76
2021/08/07 20:00:12;;;;;;;8.60;7.60;;;;;;;19.81;70.91;99836.31;258071;1093;115772;-75
2021/08/07 20:05:14;;;;;;;8.93;8.13;;;;;;;19.75;71.18;99831.07;258986;1094;114446;-75
2021/08/07 20:10:17;;;;;;;8.93;6.95;;;;;;;19.83;70.52;99823.52;257771;1096;114654;-74
2021/08/07 20:15:22;;;;;;;7.83;6.65;;;;;;;19.78;70.95;99822.58;257885;1093;114197;-76
2021/08/07 20:20:29;;;;;;;7.40;6.23;;;;;;;19.76;70.68;99830.02;259371;1093;114346;-76
2021/08/07 20:25:31;;;;;;;7.40;6.35;;;;;;;19.68;71.02;99825.78;258846;1095;114397;-75
2021/08/07 20:30:34;;;;;;;6.63;6.03;;;;;;;19.66;70.73;99838.61;257705;1096;113852;-76
2021/08/07 20:35:36;;;;;;;6.60;6.10;;;;;;;19.56;70.85;99843.65;258383;1095;114880;-75
2021/08/07 20:40:39;;;;;;;7.28;6.00;;;;;;;19.38;71.54;99832.93;258458;1096;114275;-76
2021/08/07 20:45:42;;;;;;;7.53;6.93;;;;;;;19.39;71.12;99839.95;258106;1095;114437;-75
2021/08/07 20:50:44;;;;;;;7.53;6.78;;;;;;;19.33;71.07;99833.61;258448;1096;114229;-75
2021/08/07 20:55:47;;;;;;;7.00;6.40;;;;;;;19.23;70.99;99839.51;259162;1094;113885;-75
2021/08/07 21:00:54;;;;;;;7.07;6.57;;;;;;;19.29;70.77;99846.63;258806;1096;114019;-75
2021/08/07 21:06:03;;;;;;;6.93;6.33;;;;;;;19.19;71.05;99849.03;258836;1096;114467;-78
2021/08/07 21:11:09;;;;;;;6.10;5.60;;;;;;;19.20;70.77;99845.30;258364;1094;113910;-75
2021/08/07 21:16:11;;;;;;;6.00;5.43;;;;;;;19.27;70.43;99835.34;257457;1096;113967;-75
2021/08/07 21:21:14;;;;;;;5.83;5.33;;;;;;;19.18;70.16;99842.02;257363;1096;114221;-74
2021/08/07 21:26:16;;;;;;;5.85;5.35;;;;;;;19.13;70.27;99849.91;257644;1095;114294;-75
2021/08/07 21:31:23;;;;;;;5.93;5.33;;;;;;;19.07;70.52;99840.06;257929;1096;114037;-76
2021/08/07 21:36:25;;;;;;;6.10;5.45;;;;;;;18.94;71.26;99850.92;257582;1096;113967;-76
2021/08/07 21:41:30;;;;;;;5.85;5.35;;;;;;;19.00;70.83;99836.66;258077;1096;114404;-75
2021/08/07 21:46:36;;;;;;;6.90;5.53;;;;;;;18.98;70.53;99839.55;257474;1096;114432;-75
2021/08/07 21:51:38;;;;;;;7.35;5.93;;;;;;;18.94;70.24;99840.21;257880;1096;113963;-75
2021/08/07 21:56:41;;;;;;;5.60;5.10;;;;;;;18.94;70.11;99834.86;257885;1096;113982;-74
2021/08/07 22:01:43;;;;;;;6.65;6.05;;;;;;;18.91;70.17;99830.75;257513;1095;114287;-74
2021/08/07 22:06:45;;;;;;;5.88;5.30;;;;;;;18.83;70.20;99847.92;257369;1095;114037;-73
2021/08/07 22:11:50;;;;;;;6.18;5.58;;;;;;;18.83;70.25;99828.36;257832;1093;113927;-75
2021/08/07 22:16:52;;;;;;;5.98;5.38;;;;;;;18.77;70.50;99824.72;258073;1093;114576;-76
2021/08/07 22:21:54;;;;;;;6.00;5.45;;;;;;;18.73;70.89;99838.77;257666;1093;114377;-74
2021/08/07 22:26:56;;;;;;;5.93;5.43;;;;;;;18.75;70.92;99834.00;259896;1094;114162;-74
2021/08/07 22:31:59;;;;;;;6.25;5.65;;;;;;;18.61;70.91;99825.26;258586;1094;114171;-75
2021/08/07 22:37:01;;;;;;;5.98;5.48;;;;;;;18.71;70.68;99825.59;260732;1092;114365;-76
2021/08/07 22:42:04;;;;;;;6.48;5.80;;;;;;;18.60;70.71;99818.25;259052;1092;113913;-76
2021/08/07 22:47:06;;;;;;;6.48;5.80;;;;;;;18.53;71.05;99818.32;258523;1093;114048;-73
2021/08/07 22:52:08;;;;;;;5.23;4.83;;;;;;;18.66;70.85;99817.38;259011;1093;114613;-75
2021/08/07 22:57:10;;;;;;;6.68;6.08;;;;;;;18.77;70.40;99813.20;258934;1093;114550;-74
2021/08/07 23:02:12;;;;;;;6.13;5.53;;;;;;;18.73;70.62;99810.14;260155;1092;114285;-73
2021/08/07 23:07:17;;;;;;;;;;;;;;;18.57;70.68;99805.33;258702;1092;114352;-78
2021/08/07 23:12:19;;;;;;;8.40;7.60;;;;;;;18.61;70.65;99798.49;258496;1092;103102;-75
2021/08/07 23:17:23;;;;;;;7.03;6.33;;;;;;;18.48;70.87;99803.95;258466;1093;114314;-76
2021/08/07 23:22:26;;;;;;;6.20;5.50;;;;;;;18.37;70.74;99813.49;258112;1093;113895;-74
2021/08/07 23:27:31;;;;;;;6.63;6.08;;;;;;;18.46;70.78;99800.69;258185;1093;114066;-75
2021/08/07 23:32:40;;;;;;;6.80;6.20;;;;;;;18.32;70.38;99811.48;258307;1093;114120;-73
2021/08/07 23:37:42;;;;;;;7.83;7.13;;;;;;;18.36;71.00;99799.30;257347;1093;114150;-73
2021/08/07 23:42:51;;;;;;;6.57;5.90;;;;;;;18.24;70.99;99793.02;258938;1096;114874;-73
2021/08/07 23:47:53;;;;;;;6.93;6.05;;;;;;;18.11;71.07;99782.44;258639;1093;115549;-74
2021/08/07 23:52:55;;;;;;;6.28;5.00;;;;;;;18.09;70.98;99784.49;259439;1093;113923;-73
2021/08/07 23:57:58;;;;;;;5.80;5.20;;;;;;;18.12;70.34;99776.05;259656;1093;114531;-75
